Accueil
METAR-TAF:

METAR-TAF

Aéroports :

Kastamonu, Turquie

latitude: 41-19-01N, longitude: 33-47-46E, altitude: 1073 m

Observation

Le bulletin a été fait il y a 18 heures et 6 minutes, à 08:50 UTC
Vent 7 kt de nord/nord-est, variant entre nord/nord-ouest et est/nord-est
Température 24°C
Humidité 47%
Pression 1016 hPa
Visibilité 10 km ou plus
Nuages épars à une hauteur de 3300 ft

METAR: LTAL 190850Z 03007KT 340V070 9999 SCT033 24/12 Q1016

Heure: 05:56 (02:56 UTC)

Prévision

Le bulletin a été fait il y a 1 heure et 16 minutes, à 01:40 UTC
Prévision valable du 20 à 03 UTC au 20 à 12 UTC
Vent 2 kt de direction variable
Visibilité 10 km ou plus
pas de nuages en-dessous de 1500 mètres et pas de cumulonimbus.

TAF: LTAL 200140Z 2003/2012 VRB02KT CAVOK

Observations et prévisions météorologiques de plus de 4000 aéroports (messages METAR et TAF).

Les stations disponibles sont représentées par des disques jaunes et rouges sur la carte.

Passer la souris dessus pour voir le nom de la station.

Cliquer dessus pour voir les observations et prévisions météorologiques.

Pour changer de carte: cliquez sur les boutons verts avec une croix noire pour zoomer, sur le bouton vert avec un tiret pour effectuer un zoom arrière, ou sur les flèches vertes pour les cartes adjacentes.


METAR-TAF: